createdAt,value
2022-12-01T00:00:08.316Z,58.48
2022-12-01T00:02:09.753Z,58.34
2022-12-01T00:04:11.112Z,58.78
2022-12-01T00:06:12.407Z,58.44
2022-12-01T00:08:13.743Z,58.62
2022-12-01T00:10:27.273Z,58.92
2022-12-01T00:12:28.540Z,58.48
2022-12-01T00:14:29.804Z,58.67
2022-12-01T00:16:31.196Z,58.45
2022-12-01T00:18:32.552Z,58.57
2022-12-01T00:20:33.833Z,57.91
2022-12-01T00:22:35.145Z,58.21
2022-12-01T00:24:36.443Z,57.83
2022-12-01T00:26:37.739Z,57.61
2022-12-01T00:28:39.140Z,57.49
2022-12-01T00:30:40.429Z,57.90
2022-12-01T00:32:41.841Z,57.65
2022-12-01T00:34:43.109Z,57.30
2022-12-01T00:36:44.383Z,57.30
2022-12-01T00:38:45.761Z,57.59
2022-12-01T00:40:47.076Z,57.63
2022-12-01T00:42:48.345Z,58.16
2022-12-01T00:44:49.683Z,57.53
2022-12-01T00:46:50.977Z,58.11
2022-12-01T00:48:52.284Z,58.09
2022-12-01T00:50:53.596Z,58.10
2022-12-01T00:52:54.935Z,58.23
2022-12-01T00:54:56.209Z,58.24
2022-12-01T00:56:57.493Z,57.92
2022-12-01T00:58:58.819Z,58.10
2022-12-01T01:01:00.195Z,58.52
2022-12-01T01:03:01.589Z,58.48
2022-12-01T01:05:02.864Z,58.72
2022-12-01T01:07:04.159Z,59.13
2022-12-01T01:09:05.491Z,59.09
2022-12-01T01:11:06.837Z,58.93
2022-12-01T01:13:08.105Z,58.94
2022-12-01T01:15:09.376Z,59.04
2022-12-01T01:17:10.656Z,58.98
2022-12-01T01:19:12.319Z,59.39
2022-12-01T01:21:13.625Z,59.58
2022-12-01T01:23:14.900Z,59.02
2022-12-01T01:25:16.193Z,59.14
2022-12-01T01:27:17.496Z,59.41
2022-12-01T01:29:18.828Z,59.27
2022-12-01T01:31:20.653Z,59.67
2022-12-01T01:33:21.988Z,59.33
2022-12-01T01:35:23.333Z,59.62
2022-12-01T01:37:24.625Z,59.93
2022-12-01T01:39:25.904Z,59.62
2022-12-01T01:41:27.236Z,59.10
2022-12-01T01:43:28.520Z,58.92
2022-12-01T01:45:29.813Z,58.82
2022-12-01T01:47:31.095Z,58.93
2022-12-01T01:49:32.373Z,58.95
2022-12-01T01:51:33.679Z,58.32
2022-12-01T01:53:34.968Z,58.48
2022-12-01T01:55:36.308Z,58.64
2022-12-01T01:57:37.876Z,58.20
2022-12-01T01:59:39.160Z,57.88
2022-12-01T02:01:40.673Z,57.99
2022-12-01T02:03:42.313Z,58.49
2022-12-01T02:05:44.943Z,58.12
2022-12-01T02:07:46.270Z,58.37
2022-12-01T02:09:47.942Z,58.72
2022-12-01T02:11:49.556Z,58.23
2022-12-01T02:13:51.484Z,58.37
2022-12-01T02:15:52.745Z,58.83
2022-12-01T02:17:54.049Z,58.69
2022-12-01T02:19:55.328Z,58.90
2022-12-01T02:21:56.636Z,59.20
2022-12-01T02:23:57.919Z,59.03
2022-12-01T02:25:59.192Z,59.39
2022-12-01T02:28:00.458Z,59.15
2022-12-01T02:30:01.769Z,59.21
2022-12-01T02:32:03.069Z,59.50
2022-12-01T02:34:04.352Z,59.94
2022-12-01T02:36:05.672Z,59.57
2022-12-01T02:38:06.947Z,59.32
2022-12-01T02:40:08.303Z,59.53
2022-12-01T02:42:09.689Z,59.95
2022-12-01T02:44:11.024Z,59.73
2022-12-01T02:46:12.751Z,59.45
2022-12-01T02:48:14.132Z,59.68
2022-12-01T02:50:15.419Z,59.95
2022-12-01T02:52:16.683Z,59.71
2022-12-01T02:54:17.988Z,59.58
2022-12-01T02:56:19.256Z,59.59
2022-12-01T02:58:20.541Z,59.63
2022-12-01T03:00:21.832Z,59.30
2022-12-01T03:02:24.643Z,59.25
2022-12-01T03:04:26.008Z,59.23
2022-12-01T03:06:27.773Z,58.65
2022-12-01T03:08:29.056Z,58.45
2022-12-01T03:10:30.332Z,58.66
2022-12-01T03:12:31.647Z,58.15
2022-12-01T03:14:32.928Z,57.95
2022-12-01T03:16:34.256Z,58.26
2022-12-01T03:18:35.587Z,58.21
2022-12-01T03:20:36.857Z,58.02
2022-12-01T03:22:38.177Z,58.25
2022-12-01T03:24:39.485Z,58.31
2022-12-01T03:26:40.804Z,58.76
2022-12-01T03:28:42.113Z,58.71
2022-12-01T03:30:43.395Z,58.75
2022-12-01T03:32:47.380Z,59.08
2022-12-01T03:34:49.898Z,58.80
2022-12-01T03:36:51.188Z,59.09
2022-12-01T03:38:52.683Z,59.20
2022-12-01T03:40:54.004Z,59.75
2022-12-01T03:42:55.281Z,59.52
2022-12-01T03:44:56.574Z,59.39
2022-12-01T03:46:58.106Z,59.51
2022-12-01T03:48:59.380Z,59.60
2022-12-01T03:51:01.436Z,59.67
2022-12-01T03:53:02.703Z,59.40
2022-12-01T03:55:04.532Z,46.48
2022-12-01T03:57:05.823Z,46.39
2022-12-01T03:59:07.144Z,45.41
2022-12-01T04:01:08.410Z,44.38
2022-12-01T04:03:09.762Z,47.42
2022-12-01T04:05:11.087Z,47.57
2022-12-01T04:07:13.548Z,46.58
2022-12-01T04:09:14.972Z,46.42
2022-12-01T04:11:35.269Z,46.24
2022-12-01T04:13:36.952Z,46.88
2022-12-01T04:15:38.302Z,47.28
2022-12-01T04:17:39.742Z,47.62
2022-12-01T04:19:41.027Z,48.25
2022-12-01T04:21:42.352Z,48.34
2022-12-01T04:24:01.966Z,48.95
2022-12-01T04:26:03.280Z,49.43
2022-12-01T04:28:04.565Z,49.33
2022-12-01T04:30:05.900Z,49.67
2022-12-01T04:32:07.232Z,49.46
2022-12-01T04:34:08.543Z,49.77
2022-12-01T04:36:10.031Z,50.14
2022-12-01T04:38:11.724Z,50.05
2022-12-01T04:40:13.062Z,50.24
2022-12-01T04:42:14.371Z,50.23
2022-12-01T04:44:15.706Z,50.52
2022-12-01T04:46:17.015Z,50.87
2022-12-01T04:48:18.313Z,50.93
2022-12-01T04:50:19.647Z,50.77
2022-12-01T04:52:20.958Z,50.71
2022-12-01T04:54:22.359Z,50.95
2022-12-01T04:56:23.697Z,51.02
2022-12-01T04:58:24.990Z,51.34
2022-12-01T05:00:26.291Z,51.30
2022-12-01T05:02:27.755Z,51.50
2022-12-01T05:04:31.195Z,51.58
2022-12-01T05:06:32.685Z,51.48
2022-12-01T05:08:34.541Z,51.68
2022-12-01T05:10:36.288Z,52.00
2022-12-01T05:12:37.568Z,52.17
2022-12-01T05:14:38.865Z,52.73
2022-12-01T05:16:40.681Z,53.08
2022-12-01T05:18:42.146Z,53.27
2022-12-01T05:20:59.130Z,53.52
2022-12-01T05:23:10.766Z,53.47
2022-12-01T05:25:13.488Z,53.75
2022-12-01T05:27:14.788Z,53.96
2022-12-01T05:29:16.060Z,53.79
2022-12-01T05:31:17.424Z,54.11
2022-12-01T05:33:18.734Z,54.21
2022-12-01T05:35:20.026Z,54.33
2022-12-01T05:37:21.331Z,54.43
2022-12-01T05:39:22.635Z,54.25
2022-12-01T05:41:24.086Z,54.22
2022-12-01T05:43:28.942Z,54.47
2022-12-01T05:45:31.623Z,54.34
2022-12-01T05:47:32.928Z,54.42
2022-12-01T05:49:34.231Z,53.93
2022-12-01T05:51:35.601Z,53.80
2022-12-01T05:53:36.952Z,53.82
2022-12-01T05:55:38.275Z,53.85
2022-12-01T05:57:39.787Z,53.31
2022-12-01T05:59:41.073Z,53.24
2022-12-01T06:01:42.379Z,52.91
2022-12-01T06:03:43.770Z,52.88
2022-12-01T06:05:45.080Z,52.61
2022-12-01T06:07:46.452Z,52.63
2022-12-01T06:09:48.185Z,52.80
2022-12-01T06:11:52.508Z,52.61
2022-12-01T06:13:54.056Z,52.57
2022-12-01T06:15:55.397Z,52.65
2022-12-01T06:17:56.690Z,52.64
2022-12-01T06:19:58.025Z,52.42
2022-12-01T06:21:59.308Z,52.51
2022-12-01T06:24:00.620Z,52.28
2022-12-01T06:26:02.107Z,52.39
2022-12-01T06:28:03.575Z,52.43
2022-12-01T06:30:04.858Z,52.33
2022-12-01T06:32:06.221Z,52.46
2022-12-01T06:34:07.590Z,52.79
2022-12-01T06:36:09.837Z,52.71
2022-12-01T06:38:11.192Z,52.79
2022-12-01T06:40:12.511Z,52.98
2022-12-01T06:42:13.808Z,52.85
2022-12-01T06:44:15.159Z,53.07
2022-12-01T06:46:16.579Z,53.20
2022-12-01T06:48:18.238Z,53.37
2022-12-01T06:50:19.679Z,53.37
2022-12-01T06:52:21.011Z,53.71
2022-12-01T06:54:22.606Z,53.45
2022-12-01T06:56:24.183Z,53.85
2022-12-01T06:58:25.942Z,53.70
2022-12-01T07:00:27.680Z,54.02
2022-12-01T07:02:29.192Z,54.11
2022-12-01T07:04:31.085Z,53.91
2022-12-01T07:06:32.379Z,54.14
2022-12-01T07:08:33.907Z,54.15
2022-12-01T07:10:35.219Z,53.99
2022-12-01T07:12:36.625Z,53.95
2022-12-01T07:14:37.976Z,54.21
2022-12-01T07:16:39.311Z,54.09
2022-12-01T07:18:40.693Z,53.74
2022-12-01T07:20:41.985Z,53.57
2022-12-01T07:22:43.774Z,53.36
2022-12-01T07:24:45.056Z,53.06
2022-12-01T07:26:46.464Z,52.77
2022-12-01T07:28:47.807Z,52.99
2022-12-01T07:30:49.166Z,52.69
2022-12-01T07:32:50.638Z,52.94
2022-12-01T07:34:51.903Z,52.60
2022-12-01T07:36:53.232Z,52.84
2022-12-01T07:38:54.528Z,52.50
2022-12-01T07:40:55.812Z,52.61
2022-12-01T07:42:57.247Z,52.49
2022-12-01T07:44:58.571Z,52.35
2022-12-01T07:47:00.090Z,52.56
2022-12-01T07:49:01.432Z,52.31
2022-12-01T07:51:02.835Z,52.46
2022-12-01T07:53:04.180Z,52.51
2022-12-01T07:55:05.492Z,52.18
2022-12-01T07:57:07.039Z,52.57
2022-12-01T07:59:08.435Z,52.27
2022-12-01T08:01:09.927Z,52.32
2022-12-01T08:03:11.347Z,52.43
2022-12-01T08:05:12.726Z,52.66
2022-12-01T08:07:14.087Z,52.45
2022-12-01T08:09:15.389Z,52.58
2022-12-01T08:11:16.738Z,52.60
2022-12-01T08:13:18.060Z,52.78
2022-12-01T08:15:19.379Z,53.15
2022-12-01T08:17:20.766Z,53.10
2022-12-01T08:19:22.067Z,53.65
2022-12-01T08:21:23.387Z,53.39
2022-12-01T08:23:24.681Z,53.52
2022-12-01T08:25:26.143Z,53.39
2022-12-01T08:27:27.433Z,53.62
2022-12-01T08:29:28.749Z,53.78
2022-12-01T08:31:30.085Z,53.79
2022-12-01T08:33:31.579Z,53.84
2022-12-01T08:35:33.881Z,53.65
2022-12-01T08:37:35.489Z,54.00
2022-12-01T08:39:36.985Z,53.75
2022-12-01T08:41:38.265Z,53.79
2022-12-01T08:43:57.105Z,53.87
2022-12-01T08:46:00.038Z,53.45
2022-12-01T08:48:01.403Z,53.28
2022-12-01T08:50:05.032Z,53.32
2022-12-01T08:52:06.329Z,52.87
2022-12-01T08:54:07.653Z,52.82
2022-12-01T08:56:08.938Z,52.74
2022-12-01T08:58:10.236Z,52.69
2022-12-01T09:00:11.560Z,52.55
2022-12-01T09:02:12.946Z,52.67
2022-12-01T09:04:14.315Z,52.31
2022-12-01T09:06:15.788Z,52.79
2022-12-01T09:08:32.156Z,52.38
2022-12-01T09:10:33.449Z,52.61
2022-12-01T09:12:34.729Z,52.19
2022-12-01T09:14:36.208Z,52.34
2022-12-01T09:16:37.599Z,52.24
2022-12-01T09:18:38.998Z,52.36
2022-12-01T09:20:40.281Z,52.20
2022-12-01T09:22:41.602Z,52.61
2022-12-01T09:24:42.896Z,52.57
2022-12-01T09:26:44.201Z,52.34
2022-12-01T09:28:45.494Z,53.00
2022-12-01T09:30:46.855Z,52.84
2022-12-01T09:32:48.158Z,53.01
2022-12-01T09:34:49.573Z,52.83
2022-12-01T09:36:50.899Z,52.92
2022-12-01T09:38:52.183Z,53.22
2022-12-01T09:40:53.855Z,53.30
2022-12-01T09:42:55.144Z,53.07
2022-12-01T09:44:57.156Z,53.14
2022-12-01T09:46:58.532Z,53.59
2022-12-01T09:49:00.938Z,53.16
2022-12-01T09:51:02.293Z,53.51
2022-12-01T09:53:03.847Z,53.45
2022-12-01T09:55:05.147Z,53.56
2022-12-01T09:57:06.486Z,53.38
2022-12-01T09:59:08.169Z,53.44
2022-12-01T10:01:09.509Z,53.37
2022-12-01T10:03:10.864Z,53.36
2022-12-01T10:05:12.252Z,53.49
2022-12-01T10:07:13.582Z,53.62
2022-12-01T10:09:14.866Z,53.19
2022-12-01T10:11:16.190Z,53.52
2022-12-01T10:13:17.509Z,53.23
2022-12-01T10:15:18.795Z,53.23
2022-12-01T10:17:20.099Z,53.08
2022-12-01T10:19:21.441Z,53.00
2022-12-01T10:21:22.724Z,52.83
2022-12-01T10:23:24.040Z,52.78
2022-12-01T10:25:25.372Z,52.82
2022-12-01T10:27:26.657Z,52.47
2022-12-01T10:29:28.313Z,52.44
2022-12-01T10:31:29.667Z,52.78
2022-12-01T10:33:31.165Z,52.60
2022-12-01T10:35:36.856Z,52.50
2022-12-01T10:37:38.207Z,52.25
2022-12-01T10:39:39.697Z,52.43
2022-12-01T10:41:41.009Z,52.37
2022-12-01T10:43:42.280Z,52.34
2022-12-01T10:45:44.204Z,52.48
2022-12-01T10:47:45.545Z,52.06
2022-12-01T10:49:47.019Z,52.40
2022-12-01T10:51:48.387Z,52.21
2022-12-01T10:53:49.679Z,52.52
2022-12-01T10:55:51.194Z,52.77
2022-12-01T10:57:52.477Z,52.36
2022-12-01T10:59:53.981Z,52.27
2022-12-01T11:01:55.383Z,52.35
2022-12-01T11:03:57.021Z,52.23
2022-12-01T11:05:58.481Z,52.80
2022-12-01T11:07:59.863Z,52.30
2022-12-01T11:10:01.206Z,52.37
2022-12-01T11:12:02.535Z,52.47
2022-12-01T11:14:03.906Z,52.94
2022-12-01T11:16:05.210Z,52.96
2022-12-01T11:18:06.536Z,52.53
2022-12-01T11:20:07.852Z,52.99
2022-12-01T11:22:09.188Z,53.12
2022-12-01T11:24:10.508Z,52.72
2022-12-01T11:26:11.863Z,53.29
2022-12-01T11:28:13.145Z,52.85
2022-12-01T11:30:14.484Z,52.90
2022-12-01T11:32:15.866Z,53.16
2022-12-01T11:34:17.219Z,52.94
2022-12-01T11:36:18.546Z,53.20
2022-12-01T11:38:35.135Z,53.44
2022-12-01T11:40:36.424Z,53.26
2022-12-01T11:42:37.748Z,52.89
2022-12-01T11:44:54.265Z,53.35
2022-12-01T11:47:21.780Z,52.98
2022-12-01T11:49:16.933Z,52.96
2022-12-01T11:51:18.212Z,52.66
2022-12-01T11:53:19.480Z,52.79
2022-12-01T11:55:20.808Z,52.74
2022-12-01T11:57:37.170Z,52.81
2022-12-01T11:59:38.481Z,52.51
2022-12-01T12:01:39.841Z,52.76
2022-12-01T12:03:41.167Z,52.71
2022-12-01T12:05:42.926Z,52.67
2022-12-01T12:07:44.306Z,52.21
2022-12-01T12:09:45.672Z,52.17
2022-12-01T12:11:46.945Z,52.25
2022-12-01T12:13:48.782Z,52.41
2022-12-01T12:15:50.306Z,52.36
2022-12-01T12:17:51.671Z,52.25
2022-12-01T12:20:07.643Z,52.44
2022-12-01T12:22:09.712Z,52.30
2022-12-01T12:24:11.016Z,52.42
2022-12-01T12:26:12.361Z,52.60
2022-12-01T12:28:13.660Z,52.17
2022-12-01T12:30:14.953Z,52.49
2022-12-01T12:32:16.234Z,52.25
2022-12-01T12:34:19.159Z,51.95
2022-12-01T12:36:20.463Z,52.24
2022-12-01T12:38:21.790Z,52.26
2022-12-01T12:40:23.081Z,52.31
2022-12-01T12:42:24.344Z,52.16
2022-12-01T12:44:25.671Z,52.51
2022-12-01T12:46:26.970Z,52.22
2022-12-01T12:48:31.253Z,52.38
2022-12-01T12:50:32.545Z,52.67
2022-12-01T12:52:33.856Z,52.61
2022-12-01T12:54:35.249Z,52.50
2022-12-01T12:56:36.597Z,52.23
2022-12-01T12:58:37.871Z,52.54
2022-12-01T13:00:39.171Z,52.41
2022-12-01T13:02:40.622Z,52.46
2022-12-01T13:04:41.978Z,52.77
2022-12-01T13:06:43.278Z,52.75
2022-12-01T13:08:47.581Z,52.84
2022-12-01T13:10:48.875Z,52.60
2022-12-01T13:12:50.180Z,52.42
2022-12-01T13:14:55.143Z,52.56
2022-12-01T13:16:59.131Z,52.65
2022-12-01T13:19:03.209Z,52.73
2022-12-01T13:21:04.552Z,52.55
2022-12-01T13:23:05.900Z,52.44
2022-12-01T13:25:07.721Z,51.63
2022-12-01T13:27:09.009Z,51.68
2022-12-01T13:29:10.296Z,51.27
2022-12-01T13:31:11.682Z,50.67
2022-12-01T13:33:13.011Z,51.61
2022-12-01T13:35:14.291Z,52.07
2022-12-01T13:37:15.686Z,51.53
2022-12-01T13:39:16.953Z,52.00
2022-12-01T13:41:18.258Z,52.25
2022-12-01T13:43:19.580Z,52.49
2022-12-01T13:45:20.903Z,51.88
2022-12-01T13:47:22.243Z,53.30
2022-12-01T13:49:23.523Z,53.61
2022-12-01T13:51:24.890Z,53.24
2022-12-01T13:56:07.428Z,53.18
2022-12-01T13:58:08.816Z,53.27
2022-12-01T14:00:11.048Z,52.74
2022-12-01T14:02:12.425Z,52.77
2022-12-01T14:04:13.736Z,53.08
2022-12-01T14:06:15.060Z,52.83
2022-12-01T14:08:21.399Z,53.23
2022-12-01T14:10:24.552Z,53.57
2022-12-01T14:12:25.896Z,53.16
2022-12-01T14:14:27.223Z,53.44
2022-12-01T14:16:28.596Z,53.49
2022-12-01T14:18:30.268Z,53.42
2022-12-01T14:20:31.585Z,53.30
2022-12-01T14:22:33.125Z,53.59
2022-12-01T14:24:34.661Z,51.79
2022-12-01T14:26:36.695Z,51.66
2022-12-01T14:28:40.009Z,51.06
2022-12-01T14:30:45.704Z,50.65
2022-12-01T14:32:47.023Z,50.63
2022-12-01T14:34:48.668Z,51.07
2022-12-01T14:36:50.107Z,51.34
2022-12-01T14:38:51.416Z,52.53
2022-12-01T14:40:52.704Z,52.60
2022-12-01T14:43:12.577Z,51.76
2022-12-01T14:45:13.958Z,52.03
2022-12-01T14:47:16.107Z,51.33
2022-12-01T14:49:17.837Z,51.12
2022-12-01T14:51:19.180Z,51.14
2022-12-01T14:53:20.513Z,51.56
2022-12-01T14:55:21.798Z,51.89
2022-12-01T14:57:23.536Z,52.12
2022-12-01T14:59:26.287Z,52.35
2022-12-01T15:01:27.646Z,52.09
2022-12-01T15:03:32.034Z,52.25
2022-12-01T15:05:33.508Z,52.84
2022-12-01T15:07:34.892Z,53.04
2022-12-01T15:09:36.517Z,52.26
2022-12-01T15:11:39.368Z,52.69
2022-12-01T15:13:40.653Z,52.35
2022-12-01T15:15:41.944Z,52.22
2022-12-01T15:17:43.224Z,52.63
2022-12-01T15:19:44.508Z,52.50
2022-12-01T15:21:45.821Z,53.10
2022-12-01T15:23:47.121Z,52.53
2022-12-01T15:25:48.456Z,52.86
2022-12-01T15:27:49.735Z,52.64
2022-12-01T15:29:51.232Z,52.83
2022-12-01T15:31:53.378Z,52.94
2022-12-01T15:33:54.821Z,52.92
2022-12-01T15:35:56.162Z,53.57
2022-12-01T15:37:57.508Z,52.86
2022-12-01T15:40:43.057Z,52.95
2022-12-01T15:42:20.093Z,52.62
2022-12-01T15:44:21.448Z,51.66
2022-12-01T15:46:22.797Z,51.63
2022-12-01T15:48:24.106Z,51.54
2022-12-01T15:50:25.384Z,51.65
2022-12-01T15:52:26.674Z,52.01
2022-12-01T15:54:27.996Z,51.48
2022-12-01T15:56:32.006Z,51.86
2022-12-01T15:58:33.324Z,52.31
2022-12-01T16:00:34.616Z,52.76
2022-12-01T16:02:36.000Z,52.48
2022-12-01T16:04:37.354Z,53.08
2022-12-01T16:06:38.633Z,52.86
2022-12-01T16:08:40.024Z,52.49
2022-12-01T16:10:41.444Z,51.92
2022-12-01T16:12:42.725Z,52.48
2022-12-01T16:14:44.000Z,52.96
2022-12-01T16:16:45.364Z,53.58
2022-12-01T16:18:46.717Z,53.72
2022-12-01T16:20:48.058Z,53.58
2022-12-01T16:22:49.381Z,53.98
2022-12-01T16:24:50.922Z,53.57
2022-12-01T16:26:52.465Z,53.72
2022-12-01T16:28:53.752Z,54.08
2022-12-01T16:30:55.185Z,54.61
2022-12-01T16:32:56.609Z,54.04
2022-12-01T16:34:58.146Z,54.07
2022-12-01T16:36:59.588Z,54.35
2022-12-01T16:39:01.016Z,54.25
2022-12-01T16:41:02.293Z,54.61
2022-12-01T16:43:03.576Z,54.49
2022-12-01T16:45:04.864Z,54.79
2022-12-01T16:47:06.141Z,55.29
2022-12-01T16:49:07.885Z,55.07
2022-12-01T16:51:09.209Z,54.87
2022-12-01T16:53:14.031Z,54.71
2022-12-01T16:55:15.413Z,54.38
2022-12-01T16:57:17.388Z,54.85
2022-12-01T16:59:18.668Z,54.52
2022-12-01T17:01:22.956Z,54.56
2022-12-01T17:03:24.317Z,54.18
2022-12-01T17:05:25.608Z,54.63
2022-12-01T17:07:27.111Z,54.13
2022-12-01T17:09:31.347Z,54.46
2022-12-01T17:11:32.623Z,53.93
2022-12-01T17:13:33.940Z,53.81
2022-12-01T17:15:35.304Z,54.09
2022-12-01T17:17:36.692Z,53.93
2022-12-01T17:19:38.012Z,54.42
2022-12-01T17:21:39.356Z,54.33
2022-12-01T17:23:40.714Z,53.66
2022-12-01T17:25:42.066Z,52.70
2022-12-01T17:27:44.022Z,52.46
2022-12-01T17:29:46.335Z,52.65
2022-12-01T17:31:48.018Z,53.48
2022-12-01T17:33:50.144Z,52.78
2022-12-01T17:35:51.490Z,53.01
2022-12-01T17:37:52.768Z,53.08
2022-12-01T17:39:54.532Z,52.69
2022-12-01T17:41:55.818Z,53.32
2022-12-01T17:43:57.120Z,53.42
2022-12-01T17:45:58.440Z,53.77
2022-12-01T17:47:59.736Z,53.64
2022-12-01T17:50:01.121Z,53.52
2022-12-01T17:52:02.484Z,53.37
2022-12-01T17:54:06.795Z,53.82
2022-12-01T17:56:10.990Z,53.22
2022-12-01T17:58:12.489Z,53.95
2022-12-01T18:00:16.781Z,54.04
2022-12-01T18:02:18.094Z,54.20
2022-12-01T18:04:19.428Z,54.45
2022-12-01T18:06:20.747Z,54.35
2022-12-01T18:08:22.054Z,54.33
2022-12-01T18:10:23.341Z,54.33
2022-12-01T18:12:24.673Z,54.42
2022-12-01T18:14:25.976Z,54.64
2022-12-01T18:16:27.355Z,54.74
2022-12-01T18:18:28.897Z,54.38
2022-12-01T18:20:30.204Z,54.38
2022-12-01T18:22:31.524Z,54.37
2022-12-01T18:24:32.920Z,54.45
2022-12-01T18:26:34.201Z,54.58
2022-12-01T18:28:35.533Z,54.28
2022-12-01T18:30:36.853Z,54.65
2022-12-01T18:32:38.185Z,54.93
2022-12-01T18:34:39.509Z,53.96
2022-12-01T18:36:43.636Z,54.23
2022-12-01T18:38:46.813Z,54.19
2022-12-01T18:40:48.154Z,53.70
2022-12-01T18:42:50.634Z,53.61
2022-12-01T18:44:52.115Z,53.86
2022-12-01T18:46:53.661Z,53.52
2022-12-01T18:49:00.450Z,52.78
2022-12-01T18:51:01.860Z,52.89
2022-12-01T18:53:03.187Z,52.22
2022-12-01T18:55:10.316Z,52.95
2022-12-01T18:57:12.014Z,52.66
2022-12-01T18:59:13.977Z,52.08
2022-12-01T19:01:15.319Z,52.23
2022-12-01T19:03:16.830Z,52.05
2022-12-01T19:05:21.372Z,51.77
2022-12-01T19:07:26.629Z,51.75
2022-12-01T19:09:30.961Z,52.38
2022-12-01T19:11:33.179Z,52.52
2022-12-01T19:13:34.520Z,52.28
2022-12-01T19:15:35.811Z,51.88
2022-12-01T19:17:37.130Z,52.49
2022-12-01T19:19:38.436Z,52.74
2022-12-01T19:21:39.737Z,52.65
2022-12-01T19:23:41.040Z,53.27
2022-12-01T19:25:42.353Z,52.93
2022-12-01T19:29:46.209Z,53.39
2022-12-01T19:31:53.656Z,53.41
2022-12-01T19:33:57.941Z,53.81
2022-12-01T19:35:59.232Z,53.51
2022-12-01T19:38:00.533Z,53.63
2022-12-01T19:40:04.698Z,53.76
2022-12-01T19:42:06.061Z,52.51
2022-12-01T19:44:07.394Z,53.11
2022-12-01T19:46:08.710Z,53.13
2022-12-01T19:48:10.109Z,53.10
2022-12-01T19:50:11.400Z,53.26
2022-12-01T19:52:12.721Z,53.57
2022-12-01T19:54:14.060Z,53.98
2022-12-01T19:56:15.340Z,53.93
2022-12-01T19:58:16.629Z,54.29
2022-12-01T20:00:17.940Z,54.09
2022-12-01T20:02:22.958Z,53.91
2022-12-01T20:04:27.383Z,53.38
2022-12-01T20:06:34.549Z,53.41
2022-12-01T20:08:36.280Z,53.47
2022-12-01T20:10:37.657Z,53.64
2022-12-01T20:12:39.013Z,53.09
2022-12-01T20:14:40.371Z,53.49
2022-12-01T20:16:41.681Z,53.37
2022-12-01T20:18:43.065Z,53.18
2022-12-01T20:20:44.349Z,52.75
2022-12-01T20:22:45.640Z,52.58
2022-12-01T20:24:46.934Z,52.39
2022-12-01T20:26:48.261Z,52.77
2022-12-01T20:28:49.580Z,52.71
2022-12-01T20:30:50.904Z,52.54
2022-12-01T20:32:52.232Z,52.01
2022-12-01T20:34:53.660Z,52.82
2022-12-01T20:36:55.085Z,52.28
2022-12-01T20:38:56.409Z,52.73
2022-12-01T20:40:57.710Z,53.04
2022-12-01T20:42:59.043Z,53.17
2022-12-01T20:45:00.324Z,53.41
2022-12-01T20:47:01.749Z,53.25
2022-12-01T20:49:03.482Z,52.95
2022-12-01T20:51:04.760Z,52.99
2022-12-01T20:53:06.048Z,53.48
2022-12-01T20:55:07.360Z,53.81
2022-12-01T20:57:08.797Z,53.48
2022-12-01T20:59:10.105Z,53.46
2022-12-01T21:01:11.438Z,54.07
2022-12-01T21:03:12.751Z,53.40
2022-12-01T21:05:14.468Z,53.77
2022-12-01T21:07:15.756Z,54.08
2022-12-01T21:09:20.702Z,45.76
2022-12-01T21:11:44.736Z,44.79
2022-12-01T21:13:46.224Z,44.45
2022-12-01T21:15:47.552Z,48.03
2022-12-01T21:17:48.836Z,47.08
2022-12-01T21:19:53.362Z,47.16
2022-12-01T21:21:54.680Z,47.51
2022-12-01T21:23:56.000Z,47.88
2022-12-01T21:25:57.297Z,47.88
2022-12-01T21:27:58.572Z,48.46
2022-12-01T21:30:09.587Z,48.37
2022-12-01T21:32:10.861Z,48.83
2022-12-01T21:34:12.140Z,49.16
2022-12-01T21:36:13.422Z,49.56
2022-12-01T21:38:20.466Z,49.55
2022-12-01T21:40:23.577Z,49.60
2022-12-01T21:42:24.856Z,49.93
2022-12-01T21:44:26.137Z,49.95
2022-12-01T21:46:27.449Z,50.55
2022-12-01T21:48:29.521Z,50.70
2022-12-01T21:50:32.725Z,50.63
2022-12-01T21:52:34.028Z,50.98
2022-12-01T21:54:35.310Z,50.92
2022-12-01T21:56:36.588Z,51.44
2022-12-01T21:58:37.912Z,51.62
2022-12-01T22:00:39.194Z,51.30
2022-12-01T22:02:40.585Z,51.85
2022-12-01T22:04:43.316Z,51.94
2022-12-01T22:06:45.566Z,52.47
2022-12-01T22:08:46.920Z,52.47
2022-12-01T22:10:48.224Z,52.87
2022-12-01T22:12:49.509Z,53.30
2022-12-01T22:14:50.862Z,53.13
2022-12-01T22:16:52.364Z,53.54
2022-12-01T22:18:53.657Z,53.78
2022-12-01T22:20:54.945Z,53.99
2022-12-01T22:22:56.579Z,53.82
2022-12-01T22:24:57.867Z,54.33
2022-12-01T22:26:59.149Z,54.21
2022-12-01T22:29:03.225Z,54.58
2022-12-01T22:31:04.541Z,55.06
2022-12-01T22:33:06.028Z,55.46
2022-12-01T22:35:07.345Z,54.95
2022-12-01T22:37:08.629Z,55.26
2022-12-01T22:39:09.909Z,55.57
2022-12-01T22:41:13.993Z,55.44
2022-12-01T22:43:15.293Z,55.56
2022-12-01T22:45:16.628Z,55.69
2022-12-01T22:47:17.945Z,55.79
2022-12-01T22:49:20.706Z,56.04
2022-12-01T22:51:22.159Z,56.47
2022-12-01T22:53:23.557Z,56.22
2022-12-01T22:55:24.839Z,56.21
2022-12-01T22:57:26.176Z,56.02
2022-12-01T22:59:27.508Z,56.21
2022-12-01T23:01:28.888Z,55.73
2022-12-01T23:03:30.232Z,55.47
2022-12-01T23:05:31.630Z,55.14
2022-12-01T23:07:33.023Z,55.05
2022-12-01T23:09:34.351Z,55.04
2022-12-01T23:11:35.628Z,54.65
2022-12-01T23:13:36.922Z,55.02
2022-12-01T23:15:38.286Z,54.90
2022-12-01T23:17:40.666Z,54.92
2022-12-01T23:19:41.996Z,54.64
2022-12-01T23:21:43.296Z,54.68
2022-12-01T23:23:44.615Z,54.89
2022-12-01T23:25:45.945Z,54.79
2022-12-01T23:27:47.224Z,54.99
2022-12-01T23:29:48.512Z,55.05
2022-12-01T23:31:49.823Z,55.38
2022-12-01T23:33:51.137Z,55.30
2022-12-01T23:35:52.477Z,55.66
2022-12-01T23:37:54.041Z,55.58
2022-12-01T23:39:55.368Z,54.85
2022-12-01T23:41:56.645Z,55.37
2022-12-01T23:43:57.928Z,55.25
2022-12-01T23:45:59.234Z,55.78
2022-12-01T23:48:00.535Z,55.73
2022-12-01T23:50:01.853Z,55.99
2022-12-01T23:52:03.193Z,55.92
2022-12-01T23:54:04.477Z,55.68
2022-12-01T23:56:06.676Z,56.07
2022-12-01T23:58:07.966Z,56.40
